createdAt,value
2023-05-03T00:03:55.801Z,12.70
2023-05-03T00:08:57.976Z,12.60
2023-05-03T00:14:00.124Z,12.50
2023-05-03T00:19:02.319Z,12.40
2023-05-03T00:24:05.287Z,12.30
2023-05-03T00:29:07.355Z,12.20
2023-05-03T00:34:09.486Z,12.20
2023-05-03T00:39:11.750Z,12.20
2023-05-03T00:44:14.019Z,12.20
2023-05-03T00:49:16.403Z,12.20
2023-05-03T00:54:18.610Z,12.10
2023-05-03T00:59:21.012Z,12.10
2023-05-03T01:04:23.736Z,12.10
2023-05-03T01:09:37.676Z,12.10
2023-05-03T01:14:54.496Z,12.10
2023-05-03T01:20:05.392Z,12.10
2023-05-03T01:25:09.420Z,12.00
2023-05-03T01:30:12.993Z,12.00
2023-05-03T01:35:20.331Z,12.00
2023-05-03T01:40:23.734Z,11.90
2023-05-03T01:45:26.832Z,11.90
2023-05-03T01:50:30.465Z,11.80
2023-05-03T01:55:32.658Z,11.80
2023-05-03T02:00:34.962Z,11.70
2023-05-03T02:05:37.137Z,11.60
2023-05-03T02:10:39.265Z,11.50
2023-05-03T02:15:41.562Z,11.50
2023-05-03T02:20:47.029Z,11.60
2023-05-03T02:25:49.686Z,11.80
2023-05-03T02:30:51.932Z,11.90
2023-05-03T02:35:54.742Z,11.90
2023-05-03T02:40:57.104Z,12.00
2023-05-03T02:45:59.385Z,12.00
2023-05-03T02:51:03.380Z,11.90
2023-05-03T02:56:06.406Z,12.30
2023-05-03T03:01:08.804Z,12.50
2023-05-03T03:06:11.182Z,12.60
2023-05-03T03:11:14.560Z,12.60
2023-05-03T03:16:17.023Z,12.70
2023-05-03T03:21:19.749Z,12.80
2023-05-03T03:26:22.943Z,12.80
2023-05-03T03:31:26.210Z,12.90
2023-05-03T03:36:34.181Z,13.00
2023-05-03T03:41:37.214Z,13.00
2023-05-03T03:46:40.101Z,13.00
2023-05-03T03:51:42.625Z,13.00
2023-05-03T03:56:45.867Z,13.00
2023-05-03T04:01:48.237Z,13.00
2023-05-03T04:06:51.604Z,13.00
2023-05-03T04:11:54.830Z,12.90
2023-05-03T04:16:57.648Z,12.90
2023-05-03T04:22:00.972Z,12.90
2023-05-03T04:27:04.586Z,12.90
2023-05-03T04:32:10.049Z,12.80
2023-05-03T04:37:14.543Z,12.70
2023-05-03T04:42:17.441Z,12.60
2023-05-03T04:47:21.318Z,12.60
2023-05-03T04:52:23.420Z,12.40
2023-05-03T04:57:25.884Z,12.50
2023-05-03T05:02:29.897Z,12.50
2023-05-03T05:07:35.324Z,12.50
2023-05-03T05:12:39.066Z,12.60
2023-05-03T05:17:44.393Z,12.70
2023-05-03T05:22:47.948Z,12.60
2023-05-03T05:27:50.799Z,12.70
2023-05-03T05:32:53.819Z,12.70
2023-05-03T05:37:57.143Z,12.80
2023-05-03T05:43:02.855Z,12.90
2023-05-03T05:48:08.684Z,13.00
2023-05-03T05:53:11.268Z,13.10
2023-05-03T05:58:18.930Z,13.10
2023-05-03T06:03:27.182Z,13.30
2023-05-03T06:08:30.714Z,13.40
2023-05-03T06:13:37.084Z,13.60
2023-05-03T06:18:42.981Z,13.70
2023-05-03T06:23:47.585Z,13.80
2023-05-03T06:28:53.766Z,14.00
2023-05-03T06:33:59.358Z,14.80
2023-05-03T06:39:34.117Z,15.40
2023-05-03T06:45:05.030Z,16.00
2023-05-03T06:50:10.211Z,16.20
2023-05-03T06:55:19.350Z,16.90
2023-05-03T07:00:23.393Z,17.00
2023-05-03T07:05:25.941Z,17.40
2023-05-03T07:10:31.259Z,17.70
2023-05-03T07:15:36.244Z,17.30
2023-05-03T07:20:38.589Z,16.90
2023-05-03T07:25:40.941Z,16.90
2023-05-03T07:30:43.044Z,16.50
2023-05-03T07:35:49.453Z,16.50
2023-05-03T07:40:52.271Z,17.00
2023-05-03T07:45:56.868Z,17.90
2023-05-03T07:50:59.087Z,17.90
2023-05-03T07:56:01.875Z,18.10
2023-05-03T08:01:04.083Z,18.60
2023-05-03T08:06:07.002Z,18.50
2023-05-03T08:11:09.706Z,17.80
2023-05-03T08:16:14.512Z,18.00
2023-05-03T08:21:17.656Z,17.90
2023-05-03T08:26:22.162Z,17.80
2023-05-03T08:31:24.743Z,17.70
2023-05-03T08:36:28.090Z,18.00
2023-05-03T08:41:32.520Z,18.30
2023-05-03T08:46:37.333Z,18.40
2023-05-03T08:51:42.044Z,18.30
2023-05-03T08:56:44.686Z,18.50
2023-05-03T09:01:48.733Z,18.50
2023-05-03T09:07:06.911Z,18.40
2023-05-03T09:12:09.347Z,18.50
2023-05-03T09:17:17.519Z,18.60
2023-05-03T09:22:20.351Z,18.80
2023-05-03T09:27:23.884Z,18.90
2023-05-03T09:32:26.486Z,18.90
2023-05-03T09:37:38.692Z,19.00
2023-05-03T09:42:47.356Z,19.30
2023-05-03T09:47:54.300Z,19.70
2023-05-03T09:52:57.733Z,20.10
2023-05-03T09:58:01.002Z,20.00
2023-05-03T10:03:10.829Z,20.50
2023-05-03T10:08:19.782Z,20.70
2023-05-03T10:13:25.964Z,21.00
2023-05-03T10:18:31.407Z,20.40
2023-05-03T10:23:33.546Z,20.70
2023-05-03T10:28:37.300Z,21.00
2023-05-03T10:33:39.475Z,20.70
2023-05-03T10:38:43.120Z,20.90
2023-05-03T10:43:46.145Z,20.80
2023-05-03T10:49:15.482Z,21.30
2023-05-03T10:54:19.510Z,21.40
2023-05-03T10:59:22.566Z,21.30
2023-05-03T11:04:42.266Z,21.20
2023-05-03T11:09:46.403Z,21.20
2023-05-03T11:14:52.653Z,21.30
2023-05-03T11:19:55.131Z,20.90
2023-05-03T11:24:57.366Z,21.20
2023-05-03T11:29:59.668Z,21.50
2023-05-03T11:35:04.277Z,21.40
2023-05-03T11:40:18.774Z,21.30
2023-05-03T11:45:26.512Z,21.30
2023-05-03T11:50:44.914Z,21.60
2023-05-03T11:55:49.030Z,22.10
2023-05-03T12:00:53.253Z,21.70
2023-05-03T12:05:57.279Z,21.40
2023-05-03T12:11:03.310Z,21.70
2023-05-03T12:16:12.517Z,21.80
2023-05-03T12:26:22.423Z,22.00
2023-05-03T12:31:24.991Z,22.10
2023-05-03T12:36:36.874Z,22.10
2023-05-03T12:46:45.348Z,21.80
2023-05-03T12:51:55.440Z,21.90
2023-05-03T12:57:08.343Z,23.20
2023-05-03T13:07:21.307Z,22.80
2023-05-03T13:12:30.952Z,22.90
2023-05-03T13:17:33.279Z,23.00
2023-05-03T13:22:35.422Z,23.60
2023-05-03T13:27:37.596Z,23.10
2023-05-03T13:32:41.187Z,23.00
2023-05-03T13:37:43.465Z,23.00
2023-05-03T13:42:46.078Z,23.10
2023-05-03T13:48:09.579Z,23.50
2023-05-03T13:53:10.230Z,23.80
2023-05-03T13:58:12.533Z,23.80
2023-05-03T14:03:17.553Z,23.20
2023-05-03T14:08:22.500Z,23.30
2023-05-03T14:13:25.062Z,23.70
2023-05-03T14:18:27.661Z,23.40
2023-05-03T14:23:33.463Z,23.20
2023-05-03T14:28:36.342Z,23.00
2023-05-03T14:33:40.666Z,23.10
2023-05-03T14:38:42.903Z,23.20
2023-05-03T14:43:47.008Z,23.10
2023-05-03T14:48:49.125Z,23.20
2023-05-03T14:53:52.244Z,23.10
2023-05-03T14:58:55.328Z,23.00
2023-05-03T15:03:57.435Z,22.90
2023-05-03T15:08:59.668Z,22.90
2023-05-03T15:14:01.802Z,22.60
2023-05-03T15:19:04.167Z,22.40
2023-05-03T15:24:06.644Z,22.40
2023-05-03T15:29:10.474Z,22.20
2023-05-03T15:34:12.782Z,22.00
2023-05-03T15:39:14.900Z,22.10
2023-05-03T15:44:17.094Z,22.20
2023-05-03T15:49:19.227Z,22.00
2023-05-03T15:54:21.348Z,22.30
2023-05-03T15:59:23.439Z,22.50
2023-05-03T16:04:25.806Z,23.30
2023-05-03T16:09:28.844Z,22.80
2023-05-03T16:14:30.960Z,22.00
2023-05-03T16:19:33.073Z,21.60
2023-05-03T16:24:35.285Z,21.30
2023-05-03T16:29:37.733Z,21.20
2023-05-03T16:34:39.826Z,20.70
2023-05-03T16:39:42.015Z,20.50
2023-05-03T16:44:44.699Z,20.30
2023-05-03T16:49:46.825Z,20.00
2023-05-03T16:54:49.110Z,20.00
2023-05-03T16:59:51.572Z,20.50
2023-05-03T17:04:53.883Z,20.00
2023-05-03T17:09:56.282Z,19.70
2023-05-03T17:14:58.415Z,19.40
2023-05-03T17:20:00.789Z,19.20
2023-05-03T17:25:03.632Z,19.20
2023-05-03T17:30:07.399Z,19.10
2023-05-03T17:35:11.445Z,19.00
2023-05-03T17:40:13.952Z,19.10
2023-05-03T17:45:16.437Z,19.10
2023-05-03T17:50:19.686Z,18.90
2023-05-03T17:55:22.163Z,18.60
2023-05-03T18:00:25.424Z,18.60
2023-05-03T18:05:27.620Z,18.60
2023-05-03T18:10:29.875Z,18.40
2023-05-03T18:15:32.090Z,18.30
2023-05-03T18:20:34.342Z,18.30
2023-05-03T18:25:36.421Z,18.20
2023-05-03T18:30:38.604Z,18.10
2023-05-03T18:35:40.895Z,17.80
2023-05-03T18:40:43.089Z,17.80
2023-05-03T18:45:45.385Z,17.70
2023-05-03T18:50:47.526Z,17.60
2023-05-03T18:55:52.157Z,17.60
2023-05-03T19:00:54.625Z,17.40
2023-05-03T19:06:01.082Z,17.30
2023-05-03T19:11:11.087Z,17.10
2023-05-03T19:16:16.472Z,16.90
2023-05-03T19:21:19.841Z,16.80
2023-05-03T19:26:22.173Z,16.70
2023-05-03T19:31:24.257Z,16.60
2023-05-03T19:36:27.739Z,16.50
2023-05-03T19:41:30.214Z,16.40
2023-05-03T19:46:33.825Z,16.30
2023-05-03T19:51:36.121Z,16.20
2023-05-03T19:56:38.255Z,16.20
2023-05-03T20:01:40.802Z,16.10
2023-05-03T20:06:43.008Z,16.10
2023-05-03T20:11:45.187Z,16.00
2023-05-03T20:16:47.488Z,15.90
2023-05-03T20:21:50.434Z,15.90
2023-05-03T20:26:53.274Z,15.80
2023-05-03T20:31:55.576Z,15.70
2023-05-03T20:36:58.036Z,15.70
2023-05-03T20:42:00.168Z,15.70
2023-05-03T20:47:02.285Z,15.70
2023-05-03T20:52:05.792Z,15.70
2023-05-03T20:57:08.748Z,15.60
2023-05-03T21:02:11.069Z,15.60
2023-05-03T21:07:13.501Z,15.50
2023-05-03T21:12:15.733Z,15.60
2023-05-03T21:17:17.947Z,15.50
2023-05-03T21:22:20.811Z,15.50
2023-05-03T21:27:22.988Z,15.50
2023-05-03T21:32:25.227Z,15.50
2023-05-03T21:37:27.420Z,15.50
2023-05-03T21:42:29.530Z,15.50
2023-05-03T21:47:31.668Z,15.50
2023-05-03T21:52:34.235Z,15.50
2023-05-03T21:57:37.014Z,15.60
2023-05-03T22:02:39.183Z,15.60
2023-05-03T22:07:41.636Z,15.60
2023-05-03T22:12:43.861Z,15.50
2023-05-03T22:17:46.343Z,15.50
2023-05-03T22:22:48.574Z,15.40
2023-05-03T22:27:52.107Z,15.40
2023-05-03T22:32:54.539Z,15.30
2023-05-03T22:37:56.744Z,15.30
2023-05-03T22:42:58.937Z,15.10
2023-05-03T22:48:01.366Z,15.10
2023-05-03T22:53:03.957Z,15.10
2023-05-03T22:58:06.138Z,15.20
2023-05-03T23:03:08.759Z,15.30
2023-05-03T23:08:11.233Z,15.50
2023-05-03T23:13:13.555Z,15.70
2023-05-03T23:18:15.847Z,15.80
2023-05-03T23:23:17.999Z,15.80
2023-05-03T23:28:20.117Z,15.80
2023-05-03T23:33:22.645Z,15.80
2023-05-03T23:38:25.288Z,15.80
2023-05-03T23:43:29.666Z,15.80
2023-05-03T23:48:36.923Z,15.70
2023-05-03T23:53:42.771Z,15.70
2023-05-03T23:58:45.487Z,15.60
